createdAt,value
2019-04-11T00:02:16.430Z,0.61
2019-04-11T00:04:46.323Z,0.58
2019-04-11T00:07:18.212Z,0.57
2019-04-11T00:09:47.944Z,0.56
2019-04-11T00:12:18.980Z,0.57
2019-04-11T00:14:48.458Z,0.57
2019-04-11T00:17:17.804Z,0.57
2019-04-11T00:19:48.767Z,0.60
2019-04-11T00:22:23.558Z,0.63
2019-04-11T00:24:53.387Z,0.60
2019-04-11T00:27:24.883Z,0.61
2019-04-11T00:29:55.514Z,0.61
2019-04-11T00:32:29.572Z,0.60
2019-04-11T00:34:59.444Z,0.62
2019-04-11T00:37:37.006Z,0.62
2019-04-11T00:40:07.328Z,0.62
2019-04-11T00:42:36.818Z,0.64
2019-04-11T00:45:07.453Z,0.64
2019-04-11T00:47:38.162Z,0.62
2019-04-11T00:50:10.613Z,0.61
2019-04-11T00:52:42.429Z,0.59
2019-04-11T00:55:15.700Z,0.56
2019-04-11T00:57:45.370Z,0.54
2019-04-11T01:00:16.517Z,0.55
2019-04-11T01:02:46.073Z,0.57
2019-04-11T01:05:17.176Z,0.60
2019-04-11T01:07:47.258Z,0.65
2019-04-11T01:10:20.259Z,0.72
2019-04-11T01:12:51.199Z,0.75
2019-04-11T01:15:23.902Z,0.78
2019-04-11T01:17:54.563Z,0.77
2019-04-11T01:20:23.941Z,0.79
2019-04-11T01:22:54.248Z,0.81
2019-04-11T01:25:26.366Z,0.80
2019-04-11T01:27:56.442Z,0.78
2019-04-11T01:30:36.682Z,0.72
2019-04-11T01:33:07.968Z,0.68
2019-04-11T01:35:37.480Z,0.67
2019-04-11T01:38:06.944Z,0.67
2019-04-11T01:40:36.297Z,0.63
2019-04-11T01:43:08.410Z,0.64
2019-04-11T01:45:37.903Z,0.62
2019-04-11T01:48:33.350Z,0.63
2019-04-11T01:51:03.462Z,0.63
2019-04-11T01:53:35.290Z,0.60
2019-04-11T01:56:05.352Z,0.58
2019-04-11T01:58:35.101Z,0.54
2019-04-11T02:01:16.866Z,0.53
2019-04-11T02:03:59.390Z,0.51
2019-04-11T02:06:31.932Z,0.50
2019-04-11T02:09:06.037Z,0.49
2019-04-11T02:11:37.360Z,0.49
2019-04-11T02:14:15.610Z,0.51
2019-04-11T02:16:39.473Z,0.52
2019-04-11T02:19:10.364Z,0.54
2019-04-11T02:21:40.064Z,0.53
2019-04-11T02:24:23.649Z,0.56
2019-04-11T02:27:24.803Z,0.54
2019-04-11T02:29:58.577Z,0.52
2019-04-11T02:32:29.393Z,0.53
2019-04-11T02:35:02.474Z,0.57
2019-04-11T02:37:32.075Z,0.57
2019-04-11T02:40:03.217Z,0.57
2019-04-11T02:42:35.077Z,0.53
2019-04-11T02:45:23.114Z,0.49
2019-04-11T02:47:44.583Z,0.46
2019-04-11T02:50:19.175Z,0.45
2019-04-11T02:52:49.587Z,0.44
2019-04-11T02:55:23.364Z,0.42
2019-04-11T02:57:54.323Z,0.44
2019-04-11T03:00:26.759Z,0.41
2019-04-11T03:03:01.560Z,0.41
2019-04-11T03:05:34.496Z,0.42
2019-04-11T03:08:07.956Z,0.41
2019-04-11T03:10:36.079Z,0.43
2019-04-11T03:13:05.664Z,0.43
2019-04-11T03:15:48.917Z,0.41
2019-04-11T03:18:14.196Z,0.41
2019-04-11T03:20:48.432Z,0.42
2019-04-11T03:23:16.495Z,0.43
2019-04-11T03:25:48.927Z,0.46
2019-04-11T03:28:23.795Z,0.45
2019-04-11T03:31:30.371Z,0.49
2019-04-11T03:39:01.789Z,0.38
2019-04-11T03:41:27.022Z,0.40
2019-04-11T03:43:58.113Z,0.42
2019-04-11T03:46:34.028Z,0.40
2019-04-11T03:49:00.187Z,0.38
2019-04-11T03:51:27.638Z,0.39
2019-04-11T03:53:58.890Z,0.35
2019-04-11T03:56:29.747Z,0.33
2019-04-11T03:59:01.399Z,0.32
2019-04-11T04:01:34.076Z,0.33
2019-04-11T04:04:06.719Z,0.35
2019-04-11T04:06:37.401Z,0.33
2019-04-11T04:09:10.815Z,0.30
2019-04-11T04:11:45.048Z,0.28
2019-04-11T04:14:34.346Z,0.26
2019-04-11T04:17:30.661Z,0.24
2019-04-11T04:20:22.548Z,0.26
2019-04-11T04:23:05.255Z,0.27
2019-04-11T04:25:42.719Z,0.30
2019-04-11T04:28:13.648Z,0.35
2019-04-11T04:30:44.670Z,0.33
2019-04-11T04:33:17.075Z,0.35
2019-04-11T04:35:47.648Z,0.36
2019-04-11T04:38:18.904Z,0.36
2019-04-11T04:41:05.976Z,0.38
2019-04-11T04:43:22.612Z,0.39
2019-04-11T04:46:08.509Z,0.40
2019-04-11T04:48:26.753Z,0.40
2019-04-11T04:50:56.985Z,0.42
2019-04-11T04:53:28.122Z,0.44
2019-04-11T04:56:03.203Z,0.45
2019-04-11T04:58:33.912Z,0.49
2019-04-11T05:01:06.203Z,0.52
2019-04-11T05:03:34.817Z,0.56
2019-04-11T05:06:04.357Z,0.61
2019-04-11T05:08:35.299Z,0.63
2019-04-11T05:11:05.131Z,0.67
2019-04-11T05:13:34.753Z,0.68
2019-04-11T05:16:17.126Z,0.74
2019-04-11T05:18:45.017Z,0.71
2019-04-11T05:21:14.640Z,0.76
2019-04-11T05:23:46.682Z,0.80
2019-04-11T05:26:17.306Z,0.83
2019-04-11T05:28:49.421Z,0.82
2019-04-11T05:31:19.129Z,0.85
2019-04-11T05:33:49.492Z,0.86
2019-04-11T05:36:24.778Z,0.90
2019-04-11T05:38:58.340Z,0.96
2019-04-11T05:41:27.782Z,0.99
2019-04-11T05:44:00.787Z,1.01
2019-04-11T05:46:35.279Z,1.08
2019-04-11T05:49:17.020Z,1.12
2019-04-11T05:52:00.412Z,1.13
2019-04-11T05:54:36.460Z,1.14
2019-04-11T05:57:05.537Z,1.17
2019-04-11T05:59:34.902Z,1.22
2019-04-11T06:02:15.040Z,1.31
2019-04-11T06:05:02.735Z,1.40
2019-04-11T06:07:48.557Z,1.42
2019-04-11T06:10:26.372Z,1.40
2019-04-11T06:13:16.567Z,1.48
2019-04-11T06:15:49.178Z,1.61
2019-04-11T06:18:41.846Z,1.72
2019-04-11T06:21:14.158Z,1.92
2019-04-11T06:24:08.271Z,2.06
2019-04-11T06:26:56.678Z,2.19
2019-04-11T06:29:57.785Z,2.26
2019-04-11T06:32:49.650Z,2.27
2019-04-11T06:35:40.925Z,2.36
2019-04-11T06:38:47.208Z,2.31
2019-04-11T06:41:28.615Z,2.20
2019-04-11T06:44:16.376Z,2.23
2019-04-11T06:47:14.108Z,2.30
2019-04-11T06:50:10.980Z,2.21
2019-04-11T06:52:41.282Z,2.12
2019-04-11T06:55:18.600Z,2.13
2019-04-11T06:57:48.477Z,2.06
2019-04-11T07:00:18.925Z,2.03
2019-04-11T07:02:55.074Z,2.02
2019-04-11T07:05:26.759Z,2.08
2019-04-11T07:07:59.924Z,2.13
2019-04-11T07:10:36.244Z,2.19
2019-04-11T07:13:28.311Z,2.39
2019-04-11T07:15:58.551Z,2.29
2019-04-11T07:18:56.949Z,2.46
2019-04-11T07:21:33.274Z,2.56
2019-04-11T07:24:22.382Z,2.47
2019-04-11T07:26:58.830Z,2.50
2019-04-11T07:29:48.481Z,2.54
2019-04-11T07:32:20.188Z,2.54
2019-04-11T07:35:33.600Z,2.48
2019-04-11T07:38:03.331Z,2.52
2019-04-11T07:40:51.962Z,2.63
2019-04-11T07:43:36.916Z,2.94
2019-04-11T07:46:26.875Z,3.28
2019-04-11T07:49:08.396Z,4.25
2019-04-11T07:52:00.346Z,5.48
2019-04-11T07:54:30.340Z,6.40
2019-04-11T07:57:11.435Z,6.42
2019-04-11T08:00:09.474Z,5.78
2019-04-11T08:02:57.422Z,4.97
2019-04-11T08:05:58.756Z,5.02
2019-04-11T08:08:45.164Z,4.75
2019-04-11T08:11:38.002Z,4.81
2019-04-11T08:14:44.324Z,4.78
2019-04-11T08:17:28.180Z,4.50
2019-04-11T08:20:08.100Z,4.74
2019-04-11T08:22:47.507Z,4.78
2019-04-11T08:25:35.519Z,4.82
2019-04-11T08:28:12.404Z,4.09
2019-04-11T08:31:08.756Z,3.54
2019-04-11T08:33:40.663Z,3.55
2019-04-11T08:36:30.051Z,3.42
2019-04-11T08:39:01.796Z,3.59
2019-04-11T08:41:49.669Z,3.77
2019-04-11T08:44:23.790Z,3.84
2019-04-11T08:47:02.542Z,4.11
2019-04-11T08:49:42.781Z,4.01
2019-04-11T08:52:33.319Z,3.80
2019-04-11T08:55:19.027Z,3.64
2019-04-11T08:57:51.980Z,3.12
2019-04-11T09:00:40.179Z,3.51
2019-04-11T09:03:17.677Z,3.90
2019-04-11T09:06:04.306Z,3.92
2019-04-11T09:08:59.019Z,3.83
2019-04-11T09:11:44.896Z,3.99
2019-04-11T09:14:32.486Z,3.68
2019-04-11T09:17:30.404Z,3.84
2019-04-11T09:20:23.382Z,4.13
2019-04-11T09:22:59.518Z,3.69
2019-04-11T09:25:55.344Z,4.01
2019-04-11T09:28:50.043Z,4.75
2019-04-11T09:31:41.910Z,4.54
2019-04-11T09:34:50.165Z,4.78
2019-04-11T09:37:37.809Z,4.95
2019-04-11T09:40:28.041Z,6.36
2019-04-11T09:43:15.798Z,6.36
2019-04-11T09:46:16.508Z,6.28
2019-04-11T09:49:06.682Z,5.94
2019-04-11T09:51:42.729Z,6.21
2019-04-11T09:54:45.620Z,6.30
2019-04-11T09:57:44.217Z,6.73
2019-04-11T10:00:47.606Z,7.11
2019-04-11T10:03:25.858Z,6.43
2019-04-11T10:06:19.445Z,4.91
2019-04-11T10:09:06.450Z,4.86
2019-04-11T10:11:55.068Z,5.71
2019-04-11T10:14:27.055Z,6.28
2019-04-11T10:17:14.847Z,7.67
2019-04-11T10:19:49.438Z,8.27
2019-04-11T10:22:44.202Z,8.20
2019-04-11T10:25:28.267Z,8.54
2019-04-11T10:28:33.447Z,8.93
2019-04-11T10:31:20.528Z,8.60
2019-04-11T10:34:11.251Z,7.65
2019-04-11T10:36:55.748Z,7.22
2019-04-11T10:39:47.474Z,6.47
2019-04-11T10:42:18.055Z,7.02
2019-04-11T10:45:12.607Z,7.80
2019-04-11T10:47:42.064Z,8.32
2019-04-11T10:50:36.763Z,7.33
2019-04-11T10:53:08.863Z,6.40
2019-04-11T10:58:37.167Z,5.86
2019-04-11T11:01:25.563Z,4.45
2019-04-11T11:04:14.386Z,4.70
2019-04-11T11:06:45.108Z,4.94
2019-04-11T11:09:26.272Z,7.30
2019-04-11T11:12:17.478Z,8.62
2019-04-11T11:15:18.086Z,9.93
2019-04-11T11:18:43.937Z,10.62
2019-04-11T11:20:55.018Z,10.98
2019-04-11T11:23:40.847Z,10.60
2019-04-11T11:26:33.750Z,9.77
2019-04-11T11:29:20.987Z,8.55
2019-04-11T11:32:00.720Z,7.25
2019-04-11T11:34:36.772Z,6.32
2019-04-11T11:37:37.557Z,5.60
2019-04-11T11:40:25.896Z,5.76
2019-04-11T11:43:30.789Z,5.65
2019-04-11T11:46:26.764Z,5.69
2019-04-11T11:49:02.725Z,5.33
2019-04-11T11:51:37.473Z,5.04
2019-04-11T11:54:19.691Z,5.06
2019-04-11T11:56:49.175Z,5.33
2019-04-11T11:59:36.458Z,4.80
2019-04-11T12:02:15.639Z,4.87
2019-04-11T12:05:18.529Z,4.45
2019-04-11T12:07:56.540Z,4.57
2019-04-11T12:10:35.515Z,4.19
2019-04-11T12:13:24.096Z,3.95
2019-04-11T12:16:16.011Z,4.14
2019-04-11T12:18:58.465Z,4.10
2019-04-11T12:21:31.453Z,4.32
2019-04-11T12:24:19.937Z,4.32
2019-04-11T12:26:57.335Z,4.32
2019-04-11T12:29:48.855Z,4.34
2019-04-11T12:32:20.257Z,4.29
2019-04-11T12:35:17.855Z,4.34
2019-04-11T12:37:53.324Z,4.24
2019-04-11T12:40:56.772Z,4.14
2019-04-11T12:43:34.133Z,4.13
2019-04-11T12:46:29.563Z,4.16
2019-04-11T12:48:52.172Z,4.03
2019-04-11T12:51:46.423Z,3.95
2019-04-11T12:54:22.755Z,3.98
2019-04-11T12:57:19.833Z,4.13
2019-04-11T12:59:50.817Z,4.10
2019-04-11T13:02:54.005Z,4.01
2019-04-11T13:05:23.667Z,3.83
2019-04-11T13:08:23.897Z,4.12
2019-04-11T13:10:53.332Z,4.09
2019-04-11T13:13:28.669Z,4.03
2019-04-11T13:16:11.831Z,3.81
2019-04-11T13:19:02.760Z,3.75
2019-04-11T13:21:40.009Z,3.84
2019-04-11T13:24:28.208Z,4.03
2019-04-11T13:27:14.676Z,4.16
2019-04-11T13:30:02.967Z,4.10
2019-04-11T13:32:54.588Z,3.85
2019-04-11T13:35:40.225Z,3.83
2019-04-11T13:38:34.603Z,3.82
2019-04-11T13:41:22.829Z,3.79
2019-04-11T13:44:11.241Z,4.03
2019-04-11T13:46:59.466Z,3.95
2019-04-11T13:49:46.417Z,3.77
2019-04-11T13:52:34.658Z,4.04
2019-04-11T13:55:10.526Z,4.01
2019-04-11T13:58:00.098Z,3.93
2019-04-11T14:00:50.046Z,4.07
2019-04-11T14:03:45.348Z,3.98
2019-04-11T14:06:24.857Z,4.17
2019-04-11T14:09:23.026Z,4.04
2019-04-11T14:12:04.735Z,3.95
2019-04-11T14:14:59.672Z,3.99
2019-04-11T14:17:51.071Z,3.85
2019-04-11T14:20:29.737Z,3.60
2019-04-11T14:23:16.273Z,3.60
2019-04-11T14:26:14.150Z,3.59
2019-04-11T14:28:53.275Z,3.81
2019-04-11T14:31:40.802Z,3.88
2019-04-11T14:34:32.357Z,3.93
2019-04-11T14:37:09.007Z,3.80
2019-04-11T14:39:40.654Z,3.95
2019-04-11T14:42:22.396Z,3.98
2019-04-11T14:44:52.638Z,3.79
2019-04-11T14:47:47.084Z,3.74
2019-04-11T14:50:17.469Z,3.73
2019-04-11T14:52:54.802Z,3.80
2019-04-11T14:55:25.754Z,3.81
2019-04-11T14:58:23.582Z,3.79
2019-04-11T15:00:53.715Z,3.89
2019-04-11T15:03:47.559Z,3.90
2019-04-11T15:06:38.900Z,3.95
2019-04-11T15:09:25.379Z,3.92
2019-04-11T15:11:57.929Z,3.82
2019-04-11T15:14:52.091Z,3.79
2019-04-11T15:17:32.751Z,3.85
2019-04-11T15:20:19.433Z,3.67
2019-04-11T15:22:55.691Z,3.72
2019-04-11T15:25:43.891Z,3.69
2019-04-11T15:28:29.440Z,3.64
2019-04-11T15:31:02.581Z,3.66
2019-04-11T15:34:03.343Z,3.69
2019-04-11T15:36:32.638Z,3.59
2019-04-11T15:39:44.394Z,3.56
2019-04-11T15:42:10.004Z,3.49
2019-04-11T15:45:05.113Z,3.46
2019-04-11T15:47:34.355Z,3.51
2019-04-11T15:50:21.404Z,3.53
2019-04-11T15:52:54.525Z,3.51
2019-04-11T15:55:58.074Z,3.46
2019-04-11T15:58:32.393Z,3.40
2019-04-11T16:01:23.674Z,3.34
2019-04-11T16:03:56.649Z,3.23
2019-04-11T16:06:47.909Z,3.20
2019-04-11T16:09:19.514Z,3.21
2019-04-11T16:12:07.936Z,3.11
2019-04-11T16:14:38.926Z,3.13
2019-04-11T16:17:36.140Z,3.13
2019-04-11T16:20:18.263Z,3.12
2019-04-11T16:23:09.218Z,3.01
2019-04-11T16:25:38.886Z,3.03
2019-04-11T16:28:27.416Z,3.00
2019-04-11T16:30:58.565Z,2.92
2019-04-11T16:33:46.160Z,2.92
2019-04-11T16:36:40.937Z,2.90
2019-04-11T16:39:44.795Z,2.90
2019-04-11T16:42:15.480Z,2.86
2019-04-11T16:44:59.725Z,2.76
2019-04-11T16:47:48.966Z,2.80
2019-04-11T16:50:18.290Z,2.80
2019-04-11T16:52:47.587Z,2.76
2019-04-11T16:55:16.920Z,2.64
2019-04-11T16:57:46.242Z,2.66
2019-04-11T17:00:20.256Z,2.58
2019-04-11T17:02:47.310Z,2.60
2019-04-11T17:05:17.029Z,2.46
2019-04-11T17:08:11.485Z,2.38
2019-04-11T17:10:58.629Z,2.33
2019-04-11T17:13:28.484Z,2.23
2019-04-11T17:16:00.104Z,2.18
2019-04-11T17:18:29.278Z,2.18
2019-04-11T17:20:58.589Z,2.12
2019-04-11T17:23:27.871Z,2.05
2019-04-11T17:25:57.226Z,1.98
2019-04-11T17:28:26.747Z,1.92
2019-04-11T17:30:56.108Z,1.82
2019-04-11T17:33:28.645Z,1.73
2019-04-11T17:35:56.688Z,1.58
2019-04-11T17:38:26.132Z,1.43
2019-04-11T17:40:55.408Z,1.30
2019-04-11T17:43:24.716Z,1.15
2019-04-11T17:45:56.972Z,1.03
2019-04-11T17:48:25.221Z,0.93
2019-04-11T17:50:54.456Z,0.85
2019-04-11T17:53:24.898Z,0.73
2019-04-11T17:55:55.024Z,0.65
2019-04-11T17:58:26.966Z,0.59
2019-04-11T18:01:00.275Z,0.50
2019-04-11T18:03:29.095Z,0.35
2019-04-11T18:05:58.523Z,0.28
2019-04-11T18:08:27.835Z,0.21
2019-04-11T18:10:57.153Z,0.09
2019-04-11T18:13:30.581Z,0.02
2019-04-11T18:16:00.935Z,-0.04
2019-04-11T18:18:28.548Z,-0.18
2019-04-11T18:20:58.061Z,-0.25
2019-04-11T18:23:27.403Z,-0.35
2019-04-11T18:25:56.840Z,-0.42
2019-04-11T18:28:26.197Z,-0.53
2019-04-11T18:30:55.468Z,-0.62
2019-04-11T18:33:24.814Z,-0.71
2019-04-11T18:35:54.080Z,-0.79
2019-04-11T18:38:23.418Z,-0.84
2019-04-11T18:40:52.789Z,-0.92
2019-04-11T18:43:22.202Z,-0.99
2019-04-11T18:45:51.487Z,-1.07
2019-04-11T18:48:20.781Z,-1.15
2019-04-11T18:50:50.837Z,-1.17
2019-04-11T18:53:21.252Z,-1.19
2019-04-11T18:55:50.569Z,-1.20
2019-04-11T18:58:20.039Z,-1.23
2019-04-11T19:00:49.493Z,-1.06
2019-04-11T19:03:19.001Z,-0.90
2019-04-11T19:05:48.463Z,-0.66
2019-04-11T19:08:17.833Z,-0.35
2019-04-11T19:10:47.228Z,-0.11
2019-04-11T19:13:17.536Z,0.36
2019-04-11T19:15:46.908Z,0.51
2019-04-11T19:18:17.078Z,0.64
2019-04-11T19:20:49.963Z,0.68
2019-04-11T19:23:17.631Z,0.64
2019-04-11T19:25:46.997Z,0.54
2019-04-11T19:28:16.301Z,0.51
2019-04-11T19:30:45.910Z,0.58
2019-04-11T19:33:15.477Z,0.67
2019-04-11T19:35:44.779Z,0.82
2019-04-11T19:38:28.410Z,1.01
2019-04-11T19:40:57.666Z,1.15
2019-04-11T19:43:27.134Z,1.12
2019-04-11T19:45:58.691Z,1.15
2019-04-11T19:48:27.780Z,1.17
2019-04-11T19:50:58.870Z,1.15
2019-04-11T19:53:28.346Z,1.08
2019-04-11T19:56:17.625Z,0.99
2019-04-11T19:58:46.913Z,1.04
2019-04-11T20:01:16.149Z,1.06
2019-04-11T20:03:45.568Z,1.10
2019-04-11T20:06:14.897Z,1.12
2019-04-11T20:08:44.194Z,1.04
2019-04-11T20:11:13.721Z,1.04
2019-04-11T20:13:43.127Z,0.99
2019-04-11T20:16:13.228Z,0.91
2019-04-11T20:18:51.029Z,0.81
2019-04-11T20:21:13.732Z,0.93
2019-04-11T20:23:43.165Z,0.96
2019-04-11T20:26:12.422Z,1.01
2019-04-11T20:28:41.702Z,1.10
2019-04-11T20:31:11.080Z,1.20
2019-04-11T20:33:40.334Z,1.35
2019-04-11T20:36:11.151Z,1.56
2019-04-11T20:38:41.033Z,1.71
2019-04-11T20:41:10.380Z,1.73
2019-04-11T20:43:39.710Z,1.85
2019-04-11T20:46:09.269Z,1.91
2019-04-11T20:48:38.551Z,1.98
2019-04-11T20:51:07.820Z,1.92
2019-04-11T20:53:37.680Z,1.93
2019-04-11T20:56:09.703Z,1.94
2019-04-11T20:58:39.693Z,1.96
2019-04-11T21:01:09.442Z,1.98
2019-04-11T21:03:38.784Z,1.94
2019-04-11T21:06:08.286Z,1.93
2019-04-11T21:08:37.559Z,2.01
2019-04-11T21:11:06.801Z,1.97
2019-04-11T21:13:38.481Z,1.96
2019-04-11T21:16:07.269Z,2.06
2019-04-11T21:18:36.621Z,2.11
2019-04-11T21:21:06.200Z,2.10
2019-04-11T21:23:35.495Z,2.12
2019-04-11T21:26:04.834Z,2.07
2019-04-11T21:28:34.336Z,2.07
2019-04-11T21:31:03.583Z,2.11
2019-04-11T21:33:34.921Z,2.12
2019-04-11T21:36:04.086Z,2.14
2019-04-11T21:38:33.417Z,2.07
2019-04-11T21:41:05.882Z,2.12
2019-04-11T21:43:35.884Z,2.10
2019-04-11T21:46:07.026Z,2.07
2019-04-11T21:48:36.610Z,2.03
2019-04-11T21:51:05.998Z,2.03
2019-04-11T21:53:36.709Z,2.09
2019-04-11T21:56:06.806Z,2.13
2019-04-11T21:58:36.105Z,2.03
2019-04-11T22:01:10.418Z,2.05
2019-04-11T22:03:39.745Z,2.05
2019-04-11T22:06:09.114Z,2.14
2019-04-11T22:08:38.599Z,2.14
2019-04-11T22:11:10.114Z,2.05
2019-04-11T22:13:40.408Z,2.08
2019-04-11T22:16:13.465Z,2.07
2019-04-11T22:18:41.490Z,2.09
2019-04-11T22:21:12.997Z,2.09
2019-04-11T22:23:48.604Z,2.11
2019-04-11T22:26:13.002Z,2.10
2019-04-11T22:28:42.320Z,2.16
2019-04-11T22:31:11.601Z,2.11
2019-04-11T22:33:48.215Z,2.14
2019-04-11T22:36:17.576Z,2.13
2019-04-11T22:38:46.837Z,2.05
2019-04-11T22:41:16.197Z,1.96
2019-04-11T22:43:45.462Z,1.94
2019-04-11T22:46:20.569Z,2.00
2019-04-11T22:48:45.950Z,2.01
2019-04-11T22:51:15.302Z,1.91
2019-04-11T22:53:44.629Z,1.90
2019-04-11T22:56:14.070Z,1.81
2019-04-11T22:58:43.721Z,1.78
2019-04-11T23:01:13.942Z,1.80
2019-04-11T23:03:51.936Z,1.69
2019-04-11T23:06:21.169Z,1.71
2019-04-11T23:08:50.443Z,1.72
2019-04-11T23:11:19.948Z,1.59
2019-04-11T23:13:49.524Z,1.53
2019-04-11T23:16:19.767Z,1.58
2019-04-11T23:18:49.115Z,1.50
2019-04-11T23:21:18.550Z,1.52
2019-04-11T23:23:47.873Z,1.50
2019-04-11T23:26:17.719Z,1.44
2019-04-11T23:28:47.287Z,1.40
2019-04-11T23:31:19.751Z,1.42
2019-04-11T23:33:51.447Z,1.49
2019-04-11T23:36:21.299Z,1.41
2019-04-11T23:38:52.590Z,1.41
2019-04-11T23:41:21.800Z,1.39
2019-04-11T23:43:51.513Z,1.37
2019-04-11T23:46:21.478Z,1.34
2019-04-11T23:48:54.681Z,1.42
2019-04-11T23:51:25.469Z,1.36
2019-04-11T23:53:53.805Z,1.33
2019-04-11T23:56:23.456Z,1.30
2019-04-11T23:58:52.818Z,1.31
